sensor_id;sensor_type;location;lat;lon;timestamp;pressure;altitude;pressure_sealevel;temperature;humidity
28027;BME280;15344;52.342;-1.290;2023-03-22T00:00:33;98662.34;;;10.33;100.00
28027;BME280;15344;52.342;-1.290;2023-03-22T00:02:58;98650.23;;;9.88;100.00
28027;BME280;15344;52.342;-1.290;2023-03-22T00:05:23;98641.00;;;9.32;100.00
28027;BME280;15344;52.342;-1.290;2023-03-22T00:07:49;98636.49;;;9.80;100.00
28027;BME280;15344;52.342;-1.290;2023-03-22T00:10:14;98634.64;;;9.90;100.00
28027;BME280;15344;52.342;-1.290;2023-03-22T00:12:39;98625.19;;;10.49;100.00
28027;BME280;15344;52.342;-1.290;2023-03-22T00:15:06;98625.93;;;10.64;100.00
28027;BME280;15344;52.342;-1.290;2023-03-22T00:17:30;98626.83;;;9.98;100.00
28027;BME280;15344;52.342;-1.290;2023-03-22T00:19:56;98608.71;;;10.05;100.00
28027;BME280;15344;52.342;-1.290;2023-03-22T00:22:21;98613.89;;;9.98;100.00
28027;BME280;15344;52.342;-1.290;2023-03-22T00:24:46;98610.65;;;10.05;100.00
28027;BME280;15344;52.342;-1.290;2023-03-22T00:27:12;98600.48;;;9.73;100.00
28027;BME280;15344;52.342;-1.290;2023-03-22T00:29:37;98596.27;;;10.00;100.00
28027;BME280;15344;52.342;-1.290;2023-03-22T00:32:02;98589.15;;;9.87;100.00
28027;BME280;15344;52.342;-1.290;2023-03-22T00:34:30;98585.63;;;10.33;100.00
28027;BME280;15344;52.342;-1.290;2023-03-22T00:36:53;98574.68;;;9.88;100.00
28027;BME280;15344;52.342;-1.290;2023-03-22T00:39:18;98573.41;;;9.82;100.00
28027;BME280;15344;52.342;-1.290;2023-03-22T00:41:44;98564.80;;;9.75;100.00
28027;BME280;15344;52.342;-1.290;2023-03-22T00:44:09;98554.07;;;10.47;100.00
28027;BME280;15344;52.342;-1.290;2023-03-22T00:46:34;98552.95;;;10.28;100.00
28027;BME280;15344;52.342;-1.290;2023-03-22T00:49:00;98551.68;;;9.91;100.00
28027;BME280;15344;52.342;-1.290;2023-03-22T00:51:25;98545.11;;;10.14;100.00
28027;BME280;15344;52.342;-1.290;2023-03-22T00:53:51;98549.80;;;9.56;100.00
28027;BME280;15344;52.342;-1.290;2023-03-22T00:56:16;98550.20;;;10.21;100.00
28027;BME280;15344;52.342;-1.290;2023-03-22T00:58:41;98548.78;;;9.89;100.00
28027;BME280;15344;52.342;-1.290;2023-03-22T01:01:06;98541.14;;;10.48;100.00
28027;BME280;15344;52.342;-1.290;2023-03-22T01:03:32;98541.67;;;10.49;100.00
28027;BME280;15344;52.342;-1.290;2023-03-22T01:05:57;98531.03;;;9.91;100.00
28027;BME280;15344;52.342;-1.290;2023-03-22T01:08:23;98519.39;;;10.46;100.00
28027;BME280;15344;52.342;-1.290;2023-03-22T01:10:48;98508.71;;;10.77;100.00
28027;BME280;15344;52.342;-1.290;2023-03-22T01:13:13;98501.04;;;9.94;100.00
28027;BME280;15344;52.342;-1.290;2023-03-22T01:15:39;98496.07;;;9.85;100.00
28027;BME280;15344;52.342;-1.290;2023-03-22T01:18:04;98485.94;;;10.00;100.00
28027;BME280;15344;52.342;-1.290;2023-03-22T01:20:30;98483.83;;;9.91;100.00
28027;BME280;15344;52.342;-1.290;2023-03-22T01:22:55;98475.13;;;9.99;100.00
28027;BME280;15344;52.342;-1.290;2023-03-22T01:25:20;98473.63;;;10.06;100.00
28027;BME280;15344;52.342;-1.290;2023-03-22T01:27:45;98471.89;;;9.95;100.00
28027;BME280;15344;52.342;-1.290;2023-03-22T01:30:12;98466.27;;;9.95;100.00
28027;BME280;15344;52.342;-1.290;2023-03-22T01:32:36;98453.70;;;10.10;100.00
28027;BME280;15344;52.342;-1.290;2023-03-22T01:35:02;98444.83;;;10.39;100.00
28027;BME280;15344;52.342;-1.290;2023-03-22T01:37:27;98436.49;;;10.58;100.00
28027;BME280;15344;52.342;-1.290;2023-03-22T01:39:53;98439.96;;;10.48;100.00
28027;BME280;15344;52.342;-1.290;2023-03-22T01:42:18;98440.89;;;10.26;100.00
28027;BME280;15344;52.342;-1.290;2023-03-22T01:47:09;98426.16;;;10.24;100.00
28027;BME280;15344;52.342;-1.290;2023-03-22T01:49:34;98418.18;;;10.13;100.00
28027;BME280;15344;52.342;-1.290;2023-03-22T01:52:02;98407.99;;;9.64;100.00
28027;BME280;15344;52.342;-1.290;2023-03-22T01:54:28;98412.75;;;10.20;100.00
28027;BME280;15344;52.342;-1.290;2023-03-22T01:56:50;98404.29;;;9.87;100.00
28027;BME280;15344;52.342;-1.290;2023-03-22T01:59:15;98394.94;;;10.22;100.00
28027;BME280;15344;52.342;-1.290;2023-03-22T02:01:40;98395.63;;;9.93;100.00
28027;BME280;15344;52.342;-1.290;2023-03-22T02:04:08;98394.31;;;10.06;100.00
28027;BME280;15344;52.342;-1.290;2023-03-22T02:06:31;98389.05;;;10.27;100.00
28027;BME280;15344;52.342;-1.290;2023-03-22T02:08:56;98394.57;;;10.19;100.00
28027;BME280;15344;52.342;-1.290;2023-03-22T02:11:27;98393.52;;;10.10;100.00
28027;BME280;15344;52.342;-1.290;2023-03-22T02:13:59;98389.34;;;9.71;100.00
28027;BME280;15344;52.342;-1.290;2023-03-22T02:16:23;98385.36;;;10.06;100.00
28027;BME280;15344;52.342;-1.290;2023-03-22T02:18:48;98378.90;;;10.11;100.00
28027;BME280;15344;52.342;-1.290;2023-03-22T02:23:38;98370.49;;;9.95;100.00
28027;BME280;15344;52.342;-1.290;2023-03-22T02:28:27;98371.27;;;9.76;100.00
28027;BME280;15344;52.342;-1.290;2023-03-22T02:30:57;98365.28;;;9.75;100.00
28027;BME280;15344;52.342;-1.290;2023-03-22T02:33:26;98365.54;;;10.09;100.00
28027;BME280;15344;52.342;-1.290;2023-03-22T02:35:45;98360.53;;;9.97;100.00
28027;BME280;15344;52.342;-1.290;2023-03-22T02:38:11;98356.39;;;9.70;100.00
28027;BME280;15344;52.342;-1.290;2023-03-22T02:40:30;98359.13;;;9.89;100.00
28027;BME280;15344;52.342;-1.290;2023-03-22T02:42:56;98355.30;;;10.28;100.00
28027;BME280;15344;52.342;-1.290;2023-03-22T02:45:20;98356.02;;;10.61;100.00
28027;BME280;15344;52.342;-1.290;2023-03-22T02:47:49;98341.66;;;10.03;100.00
28027;BME280;15344;52.342;-1.290;2023-03-22T02:50:11;98341.18;;;10.12;100.00
28027;BME280;15344;52.342;-1.290;2023-03-22T02:52:37;98335.66;;;9.97;100.00
28027;BME280;15344;52.342;-1.290;2023-03-22T02:55:03;98334.17;;;9.56;100.00
28027;BME280;15344;52.342;-1.290;2023-03-22T02:57:28;98330.34;;;9.50;100.00
28027;BME280;15344;52.342;-1.290;2023-03-22T02:59:50;98327.14;;;9.60;100.00
28027;BME280;15344;52.342;-1.290;2023-03-22T03:02:15;98328.70;;;9.75;100.00
28027;BME280;15344;52.342;-1.290;2023-03-22T03:04:42;98320.42;;;9.90;100.00
28027;BME280;15344;52.342;-1.290;2023-03-22T03:07:07;98324.68;;;9.61;100.00
28027;BME280;15344;52.342;-1.290;2023-03-22T03:09:30;98324.53;;;9.96;100.00
28027;BME280;15344;52.342;-1.290;2023-03-22T03:11:55;98324.66;;;10.18;100.00
28027;BME280;15344;52.342;-1.290;2023-03-22T03:14:22;98318.99;;;10.09;100.00
28027;BME280;15344;52.342;-1.290;2023-03-22T03:16:52;98320.53;;;10.36;100.00
28027;BME280;15344;52.342;-1.290;2023-03-22T03:19:17;98319.55;;;10.04;100.00
28027;BME280;15344;52.342;-1.290;2023-03-22T03:21:43;98322.81;;;10.33;100.00
28027;BME280;15344;52.342;-1.290;2023-03-22T03:24:13;98315.02;;;10.08;100.00
28027;BME280;15344;52.342;-1.290;2023-03-22T03:26:32;98309.02;;;10.46;100.00
28027;BME280;15344;52.342;-1.290;2023-03-22T03:28:58;98309.24;;;10.88;100.00
28027;BME280;15344;52.342;-1.290;2023-03-22T03:31:27;98308.37;;;10.49;100.00
28027;BME280;15344;52.342;-1.290;2023-03-22T03:33:50;98312.07;;;10.43;100.00
28027;BME280;15344;52.342;-1.290;2023-03-22T03:36:11;98303.60;;;10.41;100.00
28027;BME280;15344;52.342;-1.290;2023-03-22T03:38:38;98306.51;;;10.10;100.00
28027;BME280;15344;52.342;-1.290;2023-03-22T03:41:02;98298.62;;;10.14;100.00
28027;BME280;15344;52.342;-1.290;2023-03-22T03:43:25;98302.47;;;10.16;100.00
28027;BME280;15344;52.342;-1.290;2023-03-22T03:45:50;98291.44;;;10.12;100.00
28027;BME280;15344;52.342;-1.290;2023-03-22T03:48:19;98291.01;;;10.04;100.00
28027;BME280;15344;52.342;-1.290;2023-03-22T03:50:41;98288.52;;;9.82;100.00
28027;BME280;15344;52.342;-1.290;2023-03-22T03:53:06;98295.54;;;9.47;100.00
28027;BME280;15344;52.342;-1.290;2023-03-22T03:55:32;98286.81;;;9.88;100.00
28027;BME280;15344;52.342;-1.290;2023-03-22T03:57:57;98284.95;;;10.40;100.00
28027;BME280;15344;52.342;-1.290;2023-03-22T04:00:22;98278.22;;;10.73;100.00
28027;BME280;15344;52.342;-1.290;2023-03-22T04:02:48;98260.27;;;10.44;100.00
28027;BME280;15344;52.342;-1.290;2023-03-22T04:05:13;98268.03;;;10.69;100.00
28027;BME280;15344;52.342;-1.290;2023-03-22T04:07:38;98258.91;;;10.68;100.00
28027;BME280;15344;52.342;-1.290;2023-03-22T04:10:05;98260.33;;;10.68;100.00
28027;BME280;15344;52.342;-1.290;2023-03-22T04:12:29;98244.49;;;10.57;100.00
28027;BME280;15344;52.342;-1.290;2023-03-22T04:14:54;98220.85;;;10.34;100.00
28027;BME280;15344;52.342;-1.290;2023-03-22T04:17:20;98231.90;;;10.77;100.00
28027;BME280;15344;52.342;-1.290;2023-03-22T04:19:45;98262.37;;;10.49;100.00
28027;BME280;15344;52.342;-1.290;2023-03-22T04:22:10;98270.89;;;10.26;100.00
28027;BME280;15344;52.342;-1.290;2023-03-22T04:24:36;98265.08;;;10.47;100.00
28027;BME280;15344;52.342;-1.290;2023-03-22T04:27:01;98261.98;;;10.62;100.00
28027;BME280;15344;52.342;-1.290;2023-03-22T04:29:26;98266.17;;;10.20;100.00
28027;BME280;15344;52.342;-1.290;2023-03-22T04:31:52;98271.24;;;10.55;100.00
28027;BME280;15344;52.342;-1.290;2023-03-22T04:34:17;98265.25;;;10.86;100.00
28027;BME280;15344;52.342;-1.290;2023-03-22T04:36:43;98265.53;;;10.48;100.00
28027;BME280;15344;52.342;-1.290;2023-03-22T04:39:10;98263.30;;;10.85;100.00
28027;BME280;15344;52.342;-1.290;2023-03-22T04:41:34;98267.53;;;10.74;100.00
28027;BME280;15344;52.342;-1.290;2023-03-22T04:43:59;98259.97;;;10.56;100.00
28027;BME280;15344;52.342;-1.290;2023-03-22T04:46:24;98266.01;;;10.67;100.00
28027;BME280;15344;52.342;-1.290;2023-03-22T04:48:49;98271.11;;;10.02;100.00
28027;BME280;15344;52.342;-1.290;2023-03-22T04:51:15;98279.69;;;10.30;100.00
28027;BME280;15344;52.342;-1.290;2023-03-22T04:53:40;98285.71;;;10.57;100.00
28027;BME280;15344;52.342;-1.290;2023-03-22T04:56:08;98281.38;;;10.17;100.00
28027;BME280;15344;52.342;-1.290;2023-03-22T04:58:31;98277.24;;;10.28;100.00
28027;BME280;15344;52.342;-1.290;2023-03-22T05:00:56;98282.69;;;10.42;100.00
28027;BME280;15344;52.342;-1.290;2023-03-22T05:03:21;98279.50;;;10.11;100.00
28027;BME280;15344;52.342;-1.290;2023-03-22T05:05:51;98276.58;;;9.67;100.00
28027;BME280;15344;52.342;-1.290;2023-03-22T05:08:12;98268.63;;;10.01;100.00
28027;BME280;15344;52.342;-1.290;2023-03-22T05:10:38;98284.57;;;10.09;100.00
28027;BME280;15344;52.342;-1.290;2023-03-22T05:13:03;98275.34;;;10.36;100.00
28027;BME280;15344;52.342;-1.290;2023-03-22T05:15:28;98269.54;;;10.43;100.00
28027;BME280;15344;52.342;-1.290;2023-03-22T05:17:53;98270.61;;;10.40;100.00
28027;BME280;15344;52.342;-1.290;2023-03-22T05:20:19;98278.19;;;10.36;100.00
28027;BME280;15344;52.342;-1.290;2023-03-22T05:22:44;98280.89;;;10.17;100.00
28027;BME280;15344;52.342;-1.290;2023-03-22T05:25:10;98290.94;;;10.46;100.00
28027;BME280;15344;52.342;-1.290;2023-03-22T05:27:35;98297.64;;;10.65;100.00
28027;BME280;15344;52.342;-1.290;2023-03-22T05:30:00;98305.45;;;10.83;100.00
28027;BME280;15344;52.342;-1.290;2023-03-22T05:32:26;98302.92;;;10.66;100.00
28027;BME280;15344;52.342;-1.290;2023-03-22T05:34:51;98307.50;;;10.07;100.00
28027;BME280;15344;52.342;-1.290;2023-03-22T05:37:17;98316.71;;;10.42;100.00
28027;BME280;15344;52.342;-1.290;2023-03-22T05:39:41;98318.34;;;11.05;100.00
28027;BME280;15344;52.342;-1.290;2023-03-22T05:42:07;98316.18;;;11.48;100.00
28027;BME280;15344;52.342;-1.290;2023-03-22T05:44:32;98318.65;;;10.79;100.00
28027;BME280;15344;52.342;-1.290;2023-03-22T05:46:58;98313.75;;;10.91;100.00
28027;BME280;15344;52.342;-1.290;2023-03-22T05:49:23;98309.19;;;11.30;100.00
28027;BME280;15344;52.342;-1.290;2023-03-22T05:51:48;98310.50;;;11.31;100.00
28027;BME280;15344;52.342;-1.290;2023-03-22T05:54:14;98316.20;;;11.10;100.00
28027;BME280;15344;52.342;-1.290;2023-03-22T05:56:39;98320.83;;;11.40;100.00
28027;BME280;15344;52.342;-1.290;2023-03-22T05:59:04;98316.60;;;11.63;100.00
28027;BME280;15344;52.342;-1.290;2023-03-22T06:01:29;98316.39;;;11.83;100.00
28027;BME280;15344;52.342;-1.290;2023-03-22T06:03:55;98328.32;;;11.77;100.00
28027;BME280;15344;52.342;-1.290;2023-03-22T06:06:20;98326.44;;;11.77;100.00
28027;BME280;15344;52.342;-1.290;2023-03-22T06:08:45;98341.56;;;11.56;100.00
28027;BME280;15344;52.342;-1.290;2023-03-22T06:11:11;98341.21;;;11.84;100.00
28027;BME280;15344;52.342;-1.290;2023-03-22T06:13:36;98345.69;;;11.60;100.00
28027;BME280;15344;52.342;-1.290;2023-03-22T06:16:03;98340.66;;;11.34;100.00
28027;BME280;15344;52.342;-1.290;2023-03-22T06:18:27;98336.62;;;11.48;100.00
28027;BME280;15344;52.342;-1.290;2023-03-22T06:20:52;98342.43;;;11.41;100.00
28027;BME280;15344;52.342;-1.290;2023-03-22T06:23:17;98349.32;;;12.05;100.00
28027;BME280;15344;52.342;-1.290;2023-03-22T06:25:43;98349.64;;;11.59;100.00
28027;BME280;15344;52.342;-1.290;2023-03-22T06:28:08;98347.90;;;11.93;100.00
28027;BME280;15344;52.342;-1.290;2023-03-22T06:30:34;98332.77;;;11.55;100.00
28027;BME280;15344;52.342;-1.290;2023-03-22T06:32:59;98344.81;;;11.32;100.00
28027;BME280;15344;52.342;-1.290;2023-03-22T06:35:24;98351.79;;;11.81;100.00
28027;BME280;15344;52.342;-1.290;2023-03-22T06:37:49;98362.76;;;11.14;100.00
28027;BME280;15344;52.342;-1.290;2023-03-22T06:40:15;98370.43;;;11.36;100.00
28027;BME280;15344;52.342;-1.290;2023-03-22T06:42:40;98370.74;;;11.66;100.00
28027;BME280;15344;52.342;-1.290;2023-03-22T06:45:07;98376.70;;;12.04;100.00
28027;BME280;15344;52.342;-1.290;2023-03-22T06:47:31;98382.21;;;12.38;100.00
28027;BME280;15344;52.342;-1.290;2023-03-22T06:49:56;98386.92;;;12.33;100.00
28027;BME280;15344;52.342;-1.290;2023-03-22T06:52:21;98382.03;;;12.09;100.00
28027;BME280;15344;52.342;-1.290;2023-03-22T06:54:47;98384.45;;;11.96;100.00
28027;BME280;15344;52.342;-1.290;2023-03-22T06:57:12;98391.55;;;11.65;100.00
28027;BME280;15344;52.342;-1.290;2023-03-22T06:59:37;98401.19;;;12.24;100.00
28027;BME280;15344;52.342;-1.290;2023-03-22T07:02:03;98406.19;;;12.17;100.00
28027;BME280;15344;52.342;-1.290;2023-03-22T07:04:28;98402.11;;;11.62;100.00
28027;BME280;15344;52.342;-1.290;2023-03-22T07:06:54;98404.25;;;12.20;100.00
28027;BME280;15344;52.342;-1.290;2023-03-22T07:09:19;98407.87;;;12.33;100.00
28027;BME280;15344;52.342;-1.290;2023-03-22T07:11:45;98422.97;;;12.81;100.00
28027;BME280;15344;52.342;-1.290;2023-03-22T07:14:10;98424.05;;;11.92;100.00
28027;BME280;15344;52.342;-1.290;2023-03-22T07:16:36;98428.81;;;12.77;100.00
28027;BME280;15344;52.342;-1.290;2023-03-22T07:19:02;98442.44;;;12.62;100.00
28027;BME280;15344;52.342;-1.290;2023-03-22T07:21:27;98442.62;;;13.05;100.00
28027;BME280;15344;52.342;-1.290;2023-03-22T07:23:52;98436.51;;;13.07;100.00
28027;BME280;15344;52.342;-1.290;2023-03-22T07:26:18;98443.89;;;12.12;100.00
28027;BME280;15344;52.342;-1.290;2023-03-22T07:28:43;98450.92;;;12.74;100.00
28027;BME280;15344;52.342;-1.290;2023-03-22T07:31:09;98449.81;;;12.50;100.00
28027;BME280;15344;52.342;-1.290;2023-03-22T07:33:34;98456.99;;;11.74;100.00
28027;BME280;15344;52.342;-1.290;2023-03-22T07:36:00;98455.07;;;11.97;100.00
28027;BME280;15344;52.342;-1.290;2023-03-22T07:38:26;98460.75;;;12.85;100.00
28027;BME280;15344;52.342;-1.290;2023-03-22T07:40:51;98465.56;;;12.92;100.00
28027;BME280;15344;52.342;-1.290;2023-03-22T07:43:17;98459.63;;;13.09;100.00
28027;BME280;15344;52.342;-1.290;2023-03-22T07:45:42;98459.19;;;13.30;100.00
28027;BME280;15344;52.342;-1.290;2023-03-22T07:48:08;98459.25;;;13.78;100.00
28027;BME280;15344;52.342;-1.290;2023-03-22T07:50:33;98464.12;;;14.75;100.00
28027;BME280;15344;52.342;-1.290;2023-03-22T07:52:58;98461.75;;;14.03;100.00
28027;BME280;15344;52.342;-1.290;2023-03-22T07:55:23;98462.53;;;13.91;100.00
28027;BME280;15344;52.342;-1.290;2023-03-22T07:57:49;98460.54;;;13.74;100.00
28027;BME280;15344;52.342;-1.290;2023-03-22T08:00:15;98464.25;;;13.70;100.00
28027;BME280;15344;52.342;-1.290;2023-03-22T08:02:39;98464.87;;;13.12;100.00
28027;BME280;15344;52.342;-1.290;2023-03-22T08:05:05;98464.31;;;13.33;100.00
28027;BME280;15344;52.342;-1.290;2023-03-22T08:07:30;98465.65;;;13.53;100.00
28027;BME280;15344;52.342;-1.290;2023-03-22T08:09:55;98462.02;;;14.36;100.00
28027;BME280;15344;52.342;-1.290;2023-03-22T08:12:20;98461.46;;;14.42;100.00
28027;BME280;15344;52.342;-1.290;2023-03-22T08:14:46;98464.95;;;14.17;100.00
28027;BME280;15344;52.342;-1.290;2023-03-22T08:17:12;98468.69;;;14.01;100.00
28027;BME280;15344;52.342;-1.290;2023-03-22T08:19:37;98475.05;;;13.78;100.00
28027;BME280;15344;52.342;-1.290;2023-03-22T08:22:02;98471.70;;;14.05;100.00
28027;BME280;15344;52.342;-1.290;2023-03-22T08:24:27;98471.36;;;13.51;100.00
28027;BME280;15344;52.342;-1.290;2023-03-22T08:26:53;98478.16;;;13.40;100.00
28027;BME280;15344;52.342;-1.290;2023-03-22T08:29:18;98478.54;;;12.87;100.00
28027;BME280;15344;52.342;-1.290;2023-03-22T08:31:44;98470.91;;;13.33;100.00
28027;BME280;15344;52.342;-1.290;2023-03-22T08:34:09;98464.41;;;13.04;100.00
28027;BME280;15344;52.342;-1.290;2023-03-22T08:36:35;98468.05;;;13.27;100.00
28027;BME280;15344;52.342;-1.290;2023-03-22T08:39:00;98470.90;;;13.51;100.00
28027;BME280;15344;52.342;-1.290;2023-03-22T08:41:26;98465.14;;;14.44;100.00
28027;BME280;15344;52.342;-1.290;2023-03-22T08:43:51;98471.46;;;13.50;99.55
28027;BME280;15344;52.342;-1.290;2023-03-22T08:46:17;98471.54;;;13.32;100.00
28027;BME280;15344;52.342;-1.290;2023-03-22T08:48:42;98480.89;;;13.23;100.00
28027;BME280;15344;52.342;-1.290;2023-03-22T08:51:07;98476.17;;;13.54;100.00
28027;BME280;15344;52.342;-1.290;2023-03-22T08:53:33;98481.90;;;14.08;98.50
28027;BME280;15344;52.342;-1.290;2023-03-22T08:55:58;98483.85;;;15.19;93.60
28027;BME280;15344;52.342;-1.290;2023-03-22T08:58:24;98484.65;;;15.83;87.37
28027;BME280;15344;52.342;-1.290;2023-03-22T09:00:49;98485.39;;;15.77;87.78
28027;BME280;15344;52.342;-1.290;2023-03-22T09:03:14;98483.28;;;15.93;84.26
28027;BME280;15344;52.342;-1.290;2023-03-22T09:05:39;98484.72;;;16.48;82.16
28027;BME280;15344;52.342;-1.290;2023-03-22T09:08:05;98483.18;;;16.07;84.92
28027;BME280;15344;52.342;-1.290;2023-03-22T09:10:31;98483.92;;;16.79;82.51
28027;BME280;15344;52.342;-1.290;2023-03-22T09:12:55;98481.32;;;16.49;86.75
28027;BME280;15344;52.342;-1.290;2023-03-22T09:15:21;98476.40;;;17.06;84.02
28027;BME280;15344;52.342;-1.290;2023-03-22T09:17:46;98482.36;;;16.29;84.31
28027;BME280;15344;52.342;-1.290;2023-03-22T09:20:11;98485.59;;;16.10;85.62
28027;BME280;15344;52.342;-1.290;2023-03-22T09:22:36;98482.86;;;15.96;85.78
28027;BME280;15344;52.342;-1.290;2023-03-22T09:25:02;98483.23;;;17.24;79.76
28027;BME280;15344;52.342;-1.290;2023-03-22T09:27:26;98482.35;;;16.84;80.02
28027;BME280;15344;52.342;-1.290;2023-03-22T09:29:51;98479.12;;;17.49;74.80
28027;BME280;15344;52.342;-1.290;2023-03-22T09:32:17;98487.19;;;18.00;72.34
28027;BME280;15344;52.342;-1.290;2023-03-22T09:34:42;98485.35;;;16.93;69.52
28027;BME280;15344;52.342;-1.290;2023-03-22T09:37:07;98485.32;;;17.57;65.34
28027;BME280;15344;52.342;-1.290;2023-03-22T09:39:32;98484.28;;;18.04;62.88
28027;BME280;15344;52.342;-1.290;2023-03-22T09:42:00;98485.73;;;17.34;61.53
28027;BME280;15344;52.342;-1.290;2023-03-22T09:44:25;98488.01;;;16.80;59.19
28027;BME280;15344;52.342;-1.290;2023-03-22T09:46:52;98483.52;;;16.58;61.41
28027;BME280;15344;52.342;-1.290;2023-03-22T09:49:18;98469.05;;;17.40;60.99
28027;BME280;15344;52.342;-1.290;2023-03-22T09:51:41;98474.51;;;17.46;57.70
28027;BME280;15344;52.342;-1.290;2023-03-22T09:54:10;98485.40;;;18.19;61.46
28027;BME280;15344;52.342;-1.290;2023-03-22T09:56:31;98488.42;;;18.12;58.75
28027;BME280;15344;52.342;-1.290;2023-03-22T09:59:01;98490.87;;;17.75;61.00
28027;BME280;15344;52.342;-1.290;2023-03-22T10:01:27;98486.22;;;17.03;58.40
28027;BME280;15344;52.342;-1.290;2023-03-22T10:04:03;98478.09;;;17.82;62.43
28027;BME280;15344;52.342;-1.290;2023-03-22T10:06:17;98481.68;;;16.48;64.31
28027;BME280;15344;52.342;-1.290;2023-03-22T10:08:43;98492.31;;;17.98;63.04
28027;BME280;15344;52.342;-1.290;2023-03-22T10:11:02;98488.25;;;16.75;62.81
28027;BME280;15344;52.342;-1.290;2023-03-22T10:13:33;98481.00;;;16.37;65.30
28027;BME280;15344;52.342;-1.290;2023-03-22T10:15:53;98486.44;;;16.75;64.35
28027;BME280;15344;52.342;-1.290;2023-03-22T10:18:19;98483.91;;;17.71;63.59
28027;BME280;15344;52.342;-1.290;2023-03-22T10:20:47;98490.87;;;17.65;63.09
28027;BME280;15344;52.342;-1.290;2023-03-22T10:23:13;98490.71;;;18.17;59.87
28027;BME280;15344;52.342;-1.290;2023-03-22T10:25:35;98496.10;;;18.51;56.94
28027;BME280;15344;52.342;-1.290;2023-03-22T10:27:58;98494.18;;;18.04;60.28
28027;BME280;15344;52.342;-1.290;2023-03-22T10:30:26;98488.66;;;19.08;61.20
28027;BME280;15344;52.342;-1.290;2023-03-22T10:32:54;98482.58;;;18.62;57.93
28027;BME280;15344;52.342;-1.290;2023-03-22T10:35:15;98489.41;;;17.62;60.45
28027;BME280;15344;52.342;-1.290;2023-03-22T10:37:40;98496.01;;;16.99;62.50
28027;BME280;15344;52.342;-1.290;2023-03-22T10:40:05;98492.45;;;17.14;61.14
28027;BME280;15344;52.342;-1.290;2023-03-22T10:42:30;98501.82;;;16.90;65.95
28027;BME280;15344;52.342;-1.290;2023-03-22T10:44:59;98497.65;;;17.17;63.58
28027;BME280;15344;52.342;-1.290;2023-03-22T10:47:26;98488.05;;;16.52;66.82
28027;BME280;15344;52.342;-1.290;2023-03-22T10:49:47;98499.06;;;16.83;64.17
28027;BME280;15344;52.342;-1.290;2023-03-22T10:52:21;98497.60;;;16.72;64.37
28027;BME280;15344;52.342;-1.290;2023-03-22T10:54:36;98502.50;;;16.60;64.34
28027;BME280;15344;52.342;-1.290;2023-03-22T10:57:01;98499.71;;;16.96;63.97
28027;BME280;15344;52.342;-1.290;2023-03-22T11:01:51;98502.57;;;16.28;65.40
28027;BME280;15344;52.342;-1.290;2023-03-22T11:04:17;98502.73;;;15.66;66.57
28027;BME280;15344;52.342;-1.290;2023-03-22T11:06:47;98497.17;;;16.15;69.77
28027;BME280;15344;52.342;-1.290;2023-03-22T11:09:12;98503.05;;;16.90;65.06
28027;BME280;15344;52.342;-1.290;2023-03-22T11:11:35;98488.61;;;16.54;63.58
28027;BME280;15344;52.342;-1.290;2023-03-22T11:14:03;98495.54;;;16.47;67.11
28027;BME280;15344;52.342;-1.290;2023-03-22T11:16:23;98505.79;;;15.99;68.39
28027;BME280;15344;52.342;-1.290;2023-03-22T11:18:50;98507.25;;;15.47;69.49
28027;BME280;15344;52.342;-1.290;2023-03-22T11:21:16;98504.92;;;15.59;69.41
28027;BME280;15344;52.342;-1.290;2023-03-22T11:23:47;98501.46;;;15.75;72.69
28027;BME280;15344;52.342;-1.290;2023-03-22T11:26:09;98492.89;;;15.83;70.56
28027;BME280;15344;52.342;-1.290;2023-03-22T11:28:35;98486.70;;;16.40;70.10
28027;BME280;15344;52.342;-1.290;2023-03-22T11:31:03;98495.94;;;15.27;70.28
28027;BME280;15344;52.342;-1.290;2023-03-22T11:33:23;98492.86;;;15.56;68.87
28027;BME280;15344;52.342;-1.290;2023-03-22T11:35:54;98489.97;;;15.13;70.32
28027;BME280;15344;52.342;-1.290;2023-03-22T11:38:22;98484.87;;;15.60;70.74
28027;BME280;15344;52.342;-1.290;2023-03-22T11:40:47;98478.19;;;15.98;70.38
28027;BME280;15344;52.342;-1.290;2023-03-22T11:43:14;98482.37;;;16.27;73.16
28027;BME280;15344;52.342;-1.290;2023-03-22T11:45:35;98485.57;;;16.38;67.11
28027;BME280;15344;52.342;-1.290;2023-03-22T11:48:01;98480.45;;;16.46;67.36
28027;BME280;15344;52.342;-1.290;2023-03-22T11:50:27;98483.66;;;16.37;63.57
28027;BME280;15344;52.342;-1.290;2023-03-22T11:52:47;98480.74;;;16.54;64.91
28027;BME280;15344;52.342;-1.290;2023-03-22T11:55:13;98472.27;;;16.62;63.74
28027;BME280;15344;52.342;-1.290;2023-03-22T11:57:37;98471.76;;;16.47;62.77
28027;BME280;15344;52.342;-1.290;2023-03-22T12:00:06;98471.36;;;16.78;63.94
28027;BME280;15344;52.342;-1.290;2023-03-22T12:02:29;98467.71;;;16.82;63.96
28027;BME280;15344;52.342;-1.290;2023-03-22T12:04:57;98464.80;;;16.73;64.07
28027;BME280;15344;52.342;-1.290;2023-03-22T12:07:20;98469.93;;;17.23;60.90
28027;BME280;15344;52.342;-1.290;2023-03-22T12:09:48;98476.07;;;16.12;58.96
28027;BME280;15344;52.342;-1.290;2023-03-22T12:12:13;98473.35;;;16.17;60.20
28027;BME280;15344;52.342;-1.290;2023-03-22T12:14:41;98472.82;;;16.48;60.95
28027;BME280;15344;52.342;-1.290;2023-03-22T12:17:03;98470.96;;;16.32;60.61
28027;BME280;15344;52.342;-1.290;2023-03-22T12:19:36;98475.51;;;16.65;56.97
28027;BME280;15344;52.342;-1.290;2023-03-22T12:21:50;98465.50;;;16.80;57.46
28027;BME280;15344;52.342;-1.290;2023-03-22T12:24:25;98457.44;;;16.46;58.01
28027;BME280;15344;52.342;-1.290;2023-03-22T12:26:40;98460.09;;;16.28;56.38
28027;BME280;15344;52.342;-1.290;2023-03-22T12:29:10;98447.98;;;15.73;57.16
28027;BME280;15344;52.342;-1.290;2023-03-22T12:31:32;98448.92;;;15.84;59.17
28027;BME280;15344;52.342;-1.290;2023-03-22T12:33:58;98442.28;;;16.12;61.84
28027;BME280;15344;52.342;-1.290;2023-03-22T12:36:28;98435.01;;;16.53;60.31
28027;BME280;15344;52.342;-1.290;2023-03-22T12:38:49;98438.56;;;16.67;56.27
28027;BME280;15344;52.342;-1.290;2023-03-22T12:41:14;98438.15;;;16.07;53.53
28027;BME280;15344;52.342;-1.290;2023-03-22T12:43:44;98439.42;;;16.15;54.33